sensor_id;sensor_type;location;lat;lon;timestamp;P1;durP1;ratioP1;P2;durP2;ratioP2
80930;SDS011;70388;42.698;23.324;2024-02-28T00:01:49;28.83;;;16.23;;
80930;SDS011;70388;42.698;23.324;2024-02-28T00:04:16;31.77;;;17.58;;
80930;SDS011;70388;42.698;23.324;2024-02-28T00:06:42;36.53;;;17.98;;
80930;SDS011;70388;42.698;23.324;2024-02-28T00:09:07;33.78;;;18.33;;
80930;SDS011;70388;42.698;23.324;2024-02-28T00:11:34;32.97;;;17.52;;
80930;SDS011;70388;42.698;23.324;2024-02-28T00:14:00;34.15;;;19.00;;
80930;SDS011;70388;42.698;23.324;2024-02-28T00:16:27;38.70;;;18.63;;
80930;SDS011;70388;42.698;23.324;2024-02-28T00:18:53;33.38;;;18.20;;
80930;SDS011;70388;42.698;23.324;2024-02-28T00:21:19;35.85;;;20.20;;
80930;SDS011;70388;42.698;23.324;2024-02-28T00:23:45;38.38;;;20.58;;
80930;SDS011;70388;42.698;23.324;2024-02-28T00:26:13;36.30;;;18.92;;
80930;SDS011;70388;42.698;23.324;2024-02-28T00:28:39;34.83;;;18.08;;
80930;SDS011;70388;42.698;23.324;2024-02-28T00:31:05;39.83;;;19.98;;
80930;SDS011;70388;42.698;23.324;2024-02-28T00:33:30;31.08;;;18.90;;
80930;SDS011;70388;42.698;23.324;2024-02-28T00:35:56;42.47;;;18.98;;
80930;SDS011;70388;42.698;23.324;2024-02-28T00:38:22;32.75;;;17.27;;
80930;SDS011;70388;42.698;23.324;2024-02-28T00:40:48;32.13;;;18.75;;
80930;SDS011;70388;42.698;23.324;2024-02-28T00:43:13;32.83;;;18.55;;
80930;SDS011;70388;42.698;23.324;2024-02-28T00:45:39;33.47;;;18.70;;
80930;SDS011;70388;42.698;23.324;2024-02-28T00:48:05;33.28;;;18.92;;
80930;SDS011;70388;42.698;23.324;2024-02-28T00:50:31;33.47;;;19.02;;
80930;SDS011;70388;42.698;23.324;2024-02-28T00:52:57;32.15;;;18.65;;
80930;SDS011;70388;42.698;23.324;2024-02-28T00:55:23;30.65;;;18.00;;
80930;SDS011;70388;42.698;23.324;2024-02-28T00:57:48;35.45;;;18.60;;
80930;SDS011;70388;42.698;23.324;2024-02-28T01:00:14;33.22;;;18.83;;
80930;SDS011;70388;42.698;23.324;2024-02-28T01:02:40;31.70;;;17.77;;
80930;SDS011;70388;42.698;23.324;2024-02-28T01:05:09;33.28;;;19.02;;
80930;SDS011;70388;42.698;23.324;2024-02-28T01:07:35;35.28;;;18.92;;
80930;SDS011;70388;42.698;23.324;2024-02-28T01:10:01;38.58;;;18.33;;
80930;SDS011;70388;42.698;23.324;2024-02-28T01:12:27;31.55;;;18.25;;
80930;SDS011;70388;42.698;23.324;2024-02-28T01:14:53;33.67;;;18.27;;
80930;SDS011;70388;42.698;23.324;2024-02-28T01:17:19;34.38;;;18.15;;
80930;SDS011;70388;42.698;23.324;2024-02-28T01:19:45;36.00;;;19.45;;
80930;SDS011;70388;42.698;23.324;2024-02-28T01:22:10;32.75;;;18.58;;
80930;SDS011;70388;42.698;23.324;2024-02-28T01:24:36;34.00;;;18.70;;
80930;SDS011;70388;42.698;23.324;2024-02-28T01:27:02;32.50;;;19.08;;
80930;SDS011;70388;42.698;23.324;2024-02-28T01:29:28;31.63;;;18.42;;
80930;SDS011;70388;42.698;23.324;2024-02-28T01:31:55;32.58;;;18.58;;
80930;SDS011;70388;42.698;23.324;2024-02-28T01:34:21;37.35;;;18.58;;
80930;SDS011;70388;42.698;23.324;2024-02-28T01:36:47;33.03;;;19.60;;
80930;SDS011;70388;42.698;23.324;2024-02-28T01:39:13;34.10;;;19.02;;
80930;SDS011;70388;42.698;23.324;2024-02-28T01:41:38;36.35;;;18.50;;
80930;SDS011;70388;42.698;23.324;2024-02-28T01:44:04;30.73;;;18.38;;
80930;SDS011;70388;42.698;23.324;2024-02-28T01:46:30;32.45;;;18.50;;
80930;SDS011;70388;42.698;23.324;2024-02-28T01:48:56;34.15;;;18.15;;
80930;SDS011;70388;42.698;23.324;2024-02-28T01:51:23;32.33;;;18.35;;
80930;SDS011;70388;42.698;23.324;2024-02-28T01:53:52;35.08;;;19.25;;
80930;SDS011;70388;42.698;23.324;2024-02-28T01:56:19;36.05;;;20.42;;
80930;SDS011;70388;42.698;23.324;2024-02-28T01:58:48;38.33;;;20.48;;
80930;SDS011;70388;42.698;23.324;2024-02-28T02:01:15;36.88;;;19.17;;
80930;SDS011;70388;42.698;23.324;2024-02-28T02:03:45;34.45;;;18.75;;
80930;SDS011;70388;42.698;23.324;2024-02-28T02:06:11;32.63;;;19.05;;
80930;SDS011;70388;42.698;23.324;2024-02-28T02:08:37;34.72;;;18.38;;
80930;SDS011;70388;42.698;23.324;2024-02-28T02:11:04;33.15;;;18.48;;
80930;SDS011;70388;42.698;23.324;2024-02-28T02:13:30;32.13;;;19.70;;
80930;SDS011;70388;42.698;23.324;2024-02-28T02:15:56;38.28;;;19.85;;
80930;SDS011;70388;42.698;23.324;2024-02-28T02:18:22;37.72;;;19.55;;
80930;SDS011;70388;42.698;23.324;2024-02-28T02:20:50;37.83;;;19.40;;
80930;SDS011;70388;42.698;23.324;2024-02-28T02:23:19;38.63;;;19.95;;
80930;SDS011;70388;42.698;23.324;2024-02-28T02:25:45;33.83;;;19.25;;
80930;SDS011;70388;42.698;23.324;2024-02-28T02:28:12;35.47;;;19.10;;
80930;SDS011;70388;42.698;23.324;2024-02-28T02:30:38;35.17;;;18.50;;
80930;SDS011;70388;42.698;23.324;2024-02-28T02:33:05;37.65;;;19.25;;
80930;SDS011;70388;42.698;23.324;2024-02-28T02:35:31;37.45;;;18.55;;
80930;SDS011;70388;42.698;23.324;2024-02-28T02:37:58;36.17;;;19.17;;
80930;SDS011;70388;42.698;23.324;2024-02-28T02:40:25;36.63;;;19.13;;
80930;SDS011;70388;42.698;23.324;2024-02-28T02:42:50;34.83;;;19.63;;
80930;SDS011;70388;42.698;23.324;2024-02-28T02:45:16;38.53;;;19.50;;
80930;SDS011;70388;42.698;23.324;2024-02-28T02:47:42;31.52;;;18.77;;
80930;SDS011;70388;42.698;23.324;2024-02-28T02:50:11;36.30;;;19.45;;
80930;SDS011;70388;42.698;23.324;2024-02-28T02:52:37;37.85;;;19.65;;
80930;SDS011;70388;42.698;23.324;2024-02-28T02:55:03;35.67;;;19.75;;
80930;SDS011;70388;42.698;23.324;2024-02-28T02:57:29;34.53;;;18.48;;
80930;SDS011;70388;42.698;23.324;2024-02-28T02:59:56;33.88;;;19.02;;
80930;SDS011;70388;42.698;23.324;2024-02-28T03:02:22;35.17;;;18.90;;
80930;SDS011;70388;42.698;23.324;2024-02-28T03:04:47;36.28;;;18.63;;
80930;SDS011;70388;42.698;23.324;2024-02-28T03:07:13;40.03;;;20.30;;
80930;SDS011;70388;42.698;23.324;2024-02-28T03:09:39;42.40;;;18.88;;
80930;SDS011;70388;42.698;23.324;2024-02-28T03:12:06;35.45;;;18.88;;
80930;SDS011;70388;42.698;23.324;2024-02-28T03:14:32;42.03;;;20.88;;
80930;SDS011;70388;42.698;23.324;2024-02-28T03:17:00;38.90;;;20.77;;
80930;SDS011;70388;42.698;23.324;2024-02-28T03:19:26;45.25;;;21.33;;
80930;SDS011;70388;42.698;23.324;2024-02-28T03:21:52;39.00;;;21.02;;
80930;SDS011;70388;42.698;23.324;2024-02-28T03:24:18;36.92;;;19.60;;
80930;SDS011;70388;42.698;23.324;2024-02-28T03:26:44;39.30;;;21.08;;
80930;SDS011;70388;42.698;23.324;2024-02-28T03:29:10;34.55;;;20.15;;
80930;SDS011;70388;42.698;23.324;2024-02-28T03:31:35;39.08;;;20.48;;
80930;SDS011;70388;42.698;23.324;2024-02-28T03:34:01;40.08;;;20.58;;
80930;SDS011;70388;42.698;23.324;2024-02-28T03:36:28;35.45;;;19.42;;
80930;SDS011;70388;42.698;23.324;2024-02-28T03:38:54;39.80;;;21.77;;
80930;SDS011;70388;42.698;23.324;2024-02-28T03:41:19;35.42;;;18.63;;
80930;SDS011;70388;42.698;23.324;2024-02-28T03:43:45;35.90;;;19.50;;
80930;SDS011;70388;42.698;23.324;2024-02-28T03:46:11;39.85;;;20.63;;
80930;SDS011;70388;42.698;23.324;2024-02-28T03:48:37;43.63;;;20.17;;
80930;SDS011;70388;42.698;23.324;2024-02-28T03:51:03;39.13;;;21.15;;
80930;SDS011;70388;42.698;23.324;2024-02-28T03:53:29;42.65;;;21.83;;
80930;SDS011;70388;42.698;23.324;2024-02-28T03:55:55;37.58;;;19.88;;
80930;SDS011;70388;42.698;23.324;2024-02-28T03:58:21;38.33;;;19.75;;
80930;SDS011;70388;42.698;23.324;2024-02-28T04:00:46;33.28;;;19.65;;
80930;SDS011;70388;42.698;23.324;2024-02-28T04:03:12;37.88;;;21.02;;
80930;SDS011;70388;42.698;23.324;2024-02-28T04:05:39;36.78;;;19.73;;
80930;SDS011;70388;42.698;23.324;2024-02-28T04:08:05;34.03;;;19.23;;
80930;SDS011;70388;42.698;23.324;2024-02-28T04:10:31;38.42;;;19.33;;
80930;SDS011;70388;42.698;23.324;2024-02-28T04:12:57;35.95;;;17.98;;
80930;SDS011;70388;42.698;23.324;2024-02-28T04:15:23;34.50;;;19.33;;
80930;SDS011;70388;42.698;23.324;2024-02-28T04:17:51;33.50;;;18.20;;
80930;SDS011;70388;42.698;23.324;2024-02-28T04:20:16;33.28;;;17.80;;
80930;SDS011;70388;42.698;23.324;2024-02-28T04:22:42;32.78;;;18.52;;
80930;SDS011;70388;42.698;23.324;2024-02-28T04:25:08;42.88;;;22.10;;
80930;SDS011;70388;42.698;23.324;2024-02-28T04:27:35;40.17;;;20.02;;
80930;SDS011;70388;42.698;23.324;2024-02-28T04:30:01;42.55;;;20.90;;
80930;SDS011;70388;42.698;23.324;2024-02-28T04:32:27;36.13;;;19.85;;
80930;SDS011;70388;42.698;23.324;2024-02-28T04:34:52;40.05;;;21.55;;
80930;SDS011;70388;42.698;23.324;2024-02-28T04:37:18;36.25;;;21.33;;
80930;SDS011;70388;42.698;23.324;2024-02-28T04:39:44;41.60;;;22.20;;
80930;SDS011;70388;42.698;23.324;2024-02-28T04:42:10;39.70;;;22.08;;
80930;SDS011;70388;42.698;23.324;2024-02-28T04:44:35;43.72;;;20.95;;
80930;SDS011;70388;42.698;23.324;2024-02-28T04:47:01;37.38;;;21.13;;
80930;SDS011;70388;42.698;23.324;2024-02-28T04:49:27;38.17;;;20.02;;
80930;SDS011;70388;42.698;23.324;2024-02-28T04:51:53;38.92;;;20.92;;
80930;SDS011;70388;42.698;23.324;2024-02-28T04:54:19;42.40;;;22.05;;
80930;SDS011;70388;42.698;23.324;2024-02-28T04:56:45;37.13;;;20.90;;
80930;SDS011;70388;42.698;23.324;2024-02-28T04:59:11;39.63;;;20.33;;
80930;SDS011;70388;42.698;23.324;2024-02-28T05:01:40;38.17;;;21.27;;
80930;SDS011;70388;42.698;23.324;2024-02-28T05:04:07;34.95;;;19.80;;
80930;SDS011;70388;42.698;23.324;2024-02-28T05:06:33;42.95;;;21.15;;
80930;SDS011;70388;42.698;23.324;2024-02-28T05:09:00;36.83;;;19.63;;
80930;SDS011;70388;42.698;23.324;2024-02-28T05:11:25;37.17;;;19.90;;
80930;SDS011;70388;42.698;23.324;2024-02-28T05:13:51;42.67;;;20.98;;
80930;SDS011;70388;42.698;23.324;2024-02-28T05:16:17;39.60;;;20.65;;
80930;SDS011;70388;42.698;23.324;2024-02-28T05:18:46;41.30;;;21.17;;
80930;SDS011;70388;42.698;23.324;2024-02-28T05:21:12;40.22;;;20.67;;
80930;SDS011;70388;42.698;23.324;2024-02-28T05:23:39;38.65;;;19.48;;
80930;SDS011;70388;42.698;23.324;2024-02-28T05:26:05;47.45;;;20.35;;
80930;SDS011;70388;42.698;23.324;2024-02-28T05:28:32;39.03;;;19.95;;
80930;SDS011;70388;42.698;23.324;2024-02-28T05:31:00;44.58;;;20.92;;
80930;SDS011;70388;42.698;23.324;2024-02-28T05:33:45;37.00;;;21.45;;
80930;SDS011;70388;42.698;23.324;2024-02-28T05:36:11;43.25;;;22.33;;
80930;SDS011;70388;42.698;23.324;2024-02-28T05:38:36;38.53;;;21.65;;
80930;SDS011;70388;42.698;23.324;2024-02-28T05:41:02;40.45;;;21.33;;
80930;SDS011;70388;42.698;23.324;2024-02-28T05:43:28;42.55;;;19.90;;
80930;SDS011;70388;42.698;23.324;2024-02-28T05:45:54;38.88;;;20.48;;
80930;SDS011;70388;42.698;23.324;2024-02-28T05:48:19;41.10;;;20.73;;
80930;SDS011;70388;42.698;23.324;2024-02-28T05:50:45;37.33;;;20.95;;
80930;SDS011;70388;42.698;23.324;2024-02-28T05:53:11;40.95;;;20.02;;
80930;SDS011;70388;42.698;23.324;2024-02-28T05:55:37;43.60;;;21.80;;
80930;SDS011;70388;42.698;23.324;2024-02-28T05:58:03;46.58;;;21.58;;
80930;SDS011;70388;42.698;23.324;2024-02-28T06:00:28;36.17;;;20.27;;
80930;SDS011;70388;42.698;23.324;2024-02-28T06:02:54;34.67;;;19.70;;
80930;SDS011;70388;42.698;23.324;2024-02-28T06:05:20;45.33;;;21.27;;
80930;SDS011;70388;42.698;23.324;2024-02-28T06:07:46;44.15;;;21.58;;
80930;SDS011;70388;42.698;23.324;2024-02-28T06:10:11;37.63;;;21.70;;
80930;SDS011;70388;42.698;23.324;2024-02-28T06:12:37;40.17;;;21.58;;
80930;SDS011;70388;42.698;23.324;2024-02-28T06:15:04;35.05;;;20.95;;
80930;SDS011;70388;42.698;23.324;2024-02-28T06:17:30;42.47;;;22.75;;
80930;SDS011;70388;42.698;23.324;2024-02-28T06:19:55;40.03;;;21.33;;
80930;SDS011;70388;42.698;23.324;2024-02-28T06:22:21;43.03;;;21.88;;
80930;SDS011;70388;42.698;23.324;2024-02-28T06:24:47;36.08;;;19.77;;
80930;SDS011;70388;42.698;23.324;2024-02-28T06:27:13;41.63;;;20.95;;
80930;SDS011;70388;42.698;23.324;2024-02-28T06:29:40;37.95;;;19.92;;
80930;SDS011;70388;42.698;23.324;2024-02-28T06:32:06;44.40;;;21.63;;
80930;SDS011;70388;42.698;23.324;2024-02-28T06:34:32;41.33;;;22.30;;
80930;SDS011;70388;42.698;23.324;2024-02-28T06:36:58;37.20;;;20.45;;
80930;SDS011;70388;42.698;23.324;2024-02-28T06:39:24;38.50;;;20.83;;
80930;SDS011;70388;42.698;23.324;2024-02-28T06:41:49;40.03;;;20.05;;
80930;SDS011;70388;42.698;23.324;2024-02-28T06:44:17;38.67;;;19.95;;
80930;SDS011;70388;42.698;23.324;2024-02-28T06:46:44;33.70;;;19.75;;
80930;SDS011;70388;42.698;23.324;2024-02-28T06:49:09;45.60;;;20.67;;
80930;SDS011;70388;42.698;23.324;2024-02-28T06:51:35;36.90;;;19.40;;
80930;SDS011;70388;42.698;23.324;2024-02-28T06:54:01;40.85;;;21.55;;
80930;SDS011;70388;42.698;23.324;2024-02-28T06:56:28;35.72;;;18.50;;
80930;SDS011;70388;42.698;23.324;2024-02-28T06:58:55;37.67;;;19.70;;
80930;SDS011;70388;42.698;23.324;2024-02-28T07:01:21;45.83;;;22.23;;
80930;SDS011;70388;42.698;23.324;2024-02-28T07:03:46;36.17;;;19.80;;
80930;SDS011;70388;42.698;23.324;2024-02-28T07:06:12;40.00;;;19.77;;
80930;SDS011;70388;42.698;23.324;2024-02-28T07:08:38;37.97;;;21.17;;
80930;SDS011;70388;42.698;23.324;2024-02-28T07:11:04;39.70;;;19.33;;
80930;SDS011;70388;42.698;23.324;2024-02-28T07:13:29;40.10;;;21.00;;
80930;SDS011;70388;42.698;23.324;2024-02-28T07:15:55;41.25;;;22.33;;
80930;SDS011;70388;42.698;23.324;2024-02-28T07:18:23;43.38;;;20.80;;
80930;SDS011;70388;42.698;23.324;2024-02-28T07:20:54;47.75;;;19.85;;
80930;SDS011;70388;42.698;23.324;2024-02-28T07:23:20;35.92;;;19.90;;
80930;SDS011;70388;42.698;23.324;2024-02-28T07:25:45;41.70;;;20.98;;
80930;SDS011;70388;42.698;23.324;2024-02-28T07:28:11;35.60;;;19.15;;
80930;SDS011;70388;42.698;23.324;2024-02-28T07:30:37;40.55;;;20.73;;
80930;SDS011;70388;42.698;23.324;2024-02-28T07:33:05;36.53;;;21.08;;
80930;SDS011;70388;42.698;23.324;2024-02-28T07:35:31;43.10;;;20.38;;
80930;SDS011;70388;42.698;23.324;2024-02-28T07:37:56;38.40;;;20.67;;
80930;SDS011;70388;42.698;23.324;2024-02-28T07:40:22;41.17;;;21.38;;
80930;SDS011;70388;42.698;23.324;2024-02-28T07:42:48;36.00;;;20.70;;
80930;SDS011;70388;42.698;23.324;2024-02-28T07:45:13;42.80;;;20.88;;
80930;SDS011;70388;42.698;23.324;2024-02-28T07:47:39;39.80;;;21.48;;
80930;SDS011;70388;42.698;23.324;2024-02-28T07:50:06;35.75;;;19.13;;
80930;SDS011;70388;42.698;23.324;2024-02-28T07:52:32;39.20;;;20.80;;
80930;SDS011;70388;42.698;23.324;2024-02-28T07:55:00;39.63;;;22.15;;
80930;SDS011;70388;42.698;23.324;2024-02-28T07:57:27;45.40;;;25.73;;
80930;SDS011;70388;42.698;23.324;2024-02-28T07:59:53;44.42;;;21.60;;
80930;SDS011;70388;42.698;23.324;2024-02-28T08:02:18;38.90;;;21.55;;
80930;SDS011;70388;42.698;23.324;2024-02-28T08:04:46;41.05;;;20.95;;
80930;SDS011;70388;42.698;23.324;2024-02-28T08:07:12;45.38;;;21.98;;
80930;SDS011;70388;42.698;23.324;2024-02-28T08:09:37;40.88;;;20.48;;
80930;SDS011;70388;42.698;23.324;2024-02-28T08:12:03;37.53;;;21.25;;
80930;SDS011;70388;42.698;23.324;2024-02-28T08:14:29;38.85;;;21.20;;
80930;SDS011;70388;42.698;23.324;2024-02-28T08:16:55;38.45;;;20.77;;
80930;SDS011;70388;42.698;23.324;2024-02-28T08:19:20;41.38;;;21.88;;
80930;SDS011;70388;42.698;23.324;2024-02-28T08:21:46;32.95;;;18.65;;
80930;SDS011;70388;42.698;23.324;2024-02-28T08:24:12;34.72;;;20.30;;
80930;SDS011;70388;42.698;23.324;2024-02-28T08:26:38;35.65;;;20.90;;
80930;SDS011;70388;42.698;23.324;2024-02-28T08:29:06;35.70;;;20.17;;
80930;SDS011;70388;42.698;23.324;2024-02-28T08:31:31;33.45;;;20.70;;
80930;SDS011;70388;42.698;23.324;2024-02-28T08:33:57;37.40;;;21.33;;
80930;SDS011;70388;42.698;23.324;2024-02-28T08:36:23;37.58;;;20.42;;
80930;SDS011;70388;42.698;23.324;2024-02-28T08:38:49;31.75;;;20.30;;
80930;SDS011;70388;42.698;23.324;2024-02-28T08:41:17;37.92;;;19.75;;
80930;SDS011;70388;42.698;23.324;2024-02-28T08:43:43;36.47;;;20.55;;
80930;SDS011;70388;42.698;23.324;2024-02-28T08:46:09;39.03;;;19.88;;
80930;SDS011;70388;42.698;23.324;2024-02-28T08:48:41;31.50;;;20.00;;
80930;SDS011;70388;42.698;23.324;2024-02-28T08:51:07;28.67;;;17.38;;
80930;SDS011;70388;42.698;23.324;2024-02-28T08:53:33;33.83;;;19.35;;
80930;SDS011;70388;42.698;23.324;2024-02-28T08:55:58;29.77;;;19.10;;
80930;SDS011;70388;42.698;23.324;2024-02-28T08:58:24;29.20;;;18.33;;
80930;SDS011;70388;42.698;23.324;2024-02-28T09:00:50;30.00;;;16.95;;
80930;SDS011;70388;42.698;23.324;2024-02-28T09:03:16;23.17;;;13.98;;
80930;SDS011;70388;42.698;23.324;2024-02-28T09:05:42;23.35;;;13.52;;
80930;SDS011;70388;42.698;23.324;2024-02-28T09:08:07;19.17;;;13.70;;
80930;SDS011;70388;42.698;23.324;2024-02-28T09:10:34;24.42;;;15.23;;
80930;SDS011;70388;42.698;23.324;2024-02-28T09:13:00;29.65;;;17.17;;
80930;SDS011;70388;42.698;23.324;2024-02-28T09:15:25;25.60;;;14.98;;
80930;SDS011;70388;42.698;23.324;2024-02-28T09:17:51;25.50;;;15.30;;
80930;SDS011;70388;42.698;23.324;2024-02-28T09:20:17;29.27;;;16.83;;
80930;SDS011;70388;42.698;23.324;2024-02-28T09:22:43;28.58;;;17.88;;
80930;SDS011;70388;42.698;23.324;2024-02-28T09:25:09;27.42;;;17.13;;
80930;SDS011;70388;42.698;23.324;2024-02-28T09:27:35;35.05;;;18.63;;
80930;SDS011;70388;42.698;23.324;2024-02-28T09:30:02;25.98;;;16.08;;
80930;SDS011;70388;42.698;23.324;2024-02-28T09:32:28;27.73;;;16.75;;
80930;SDS011;70388;42.698;23.324;2024-02-28T09:34:53;26.67;;;16.20;;
80930;SDS011;70388;42.698;23.324;2024-02-28T09:37:19;33.30;;;18.65;;
80930;SDS011;70388;42.698;23.324;2024-02-28T09:39:47;29.75;;;18.67;;
80930;SDS011;70388;42.698;23.324;2024-02-28T09:42:13;28.13;;;16.73;;
80930;SDS011;70388;42.698;23.324;2024-02-28T09:44:40;27.92;;;18.08;;
80930;SDS011;70388;42.698;23.324;2024-02-28T09:47:07;30.48;;;19.10;;
80930;SDS011;70388;42.698;23.324;2024-02-28T09:49:33;29.85;;;17.17;;
80930;SDS011;70388;42.698;23.324;2024-02-28T09:52:04;22.70;;;15.65;;
80930;SDS011;70388;42.698;23.324;2024-02-28T09:54:30;21.92;;;13.93;;
80930;SDS011;70388;42.698;23.324;2024-02-28T09:56:56;22.42;;;13.88;;
80930;SDS011;70388;42.698;23.324;2024-02-28T09:59:23;22.35;;;14.00;;
80930;SDS011;70388;42.698;23.324;2024-02-28T10:01:53;21.77;;;13.70;;
80930;SDS011;70388;42.698;23.324;2024-02-28T10:04:21;25.15;;;15.30;;
80930;SDS011;70388;42.698;23.324;2024-02-28T10:06:51;24.83;;;15.85;;
80930;SDS011;70388;42.698;23.324;2024-02-28T10:09:17;21.60;;;13.85;;
80930;SDS011;70388;42.698;23.324;2024-02-28T10:11:43;27.55;;;15.20;;
80930;SDS011;70388;42.698;23.324;2024-02-28T10:14:09;22.63;;;14.27;;
80930;SDS011;70388;42.698;23.324;2024-02-28T10:16:35;27.35;;;16.02;;
80930;SDS011;70388;42.698;23.324;2024-02-28T10:19:00;22.27;;;14.98;;
80930;SDS011;70388;42.698;23.324;2024-02-28T10:21:29;29.48;;;14.32;;
80930;SDS011;70388;42.698;23.324;2024-02-28T10:23:57;26.70;;;13.95;;
80930;SDS011;70388;42.698;23.324;2024-02-28T10:26:23;22.25;;;13.10;;
80930;SDS011;70388;42.698;23.324;2024-02-28T10:28:50;22.92;;;13.25;;
80930;SDS011;70388;42.698;23.324;2024-02-28T10:31:16;26.52;;;13.75;;
80930;SDS011;70388;42.698;23.324;2024-02-28T10:33:47;21.95;;;13.30;;
80930;SDS011;70388;42.698;23.324;2024-02-28T10:36:13;25.08;;;14.15;;
80930;SDS011;70388;42.698;23.324;2024-02-28T10:38:39;20.88;;;12.13;;
80930;SDS011;70388;42.698;23.324;2024-02-28T10:41:05;22.05;;;12.73;;
80930;SDS011;70388;42.698;23.324;2024-02-28T10:43:31;21.88;;;12.38;;
80930;SDS011;70388;42.698;23.324;2024-02-28T10:45:59;20.67;;;12.93;;
80930;SDS011;70388;42.698;23.324;2024-02-28T10:48:26;26.60;;;13.52;;
80930;SDS011;70388;42.698;23.324;2024-02-28T10:50:52;22.10;;;13.52;;
80930;SDS011;70388;42.698;23.324;2024-02-28T10:53:21;19.52;;;12.18;;
80930;SDS011;70388;42.698;23.324;2024-02-28T10:55:53;27.67;;;13.80;;
80930;SDS011;70388;42.698;23.324;2024-02-28T10:58:24;20.48;;;12.32;;
80930;SDS011;70388;42.698;23.324;2024-02-28T11:00:53;22.60;;;12.88;;
80930;SDS011;70388;42.698;23.324;2024-02-28T11:03:19;22.52;;;13.45;;
80930;SDS011;70388;42.698;23.324;2024-02-28T11:05:45;20.20;;;12.68;;
80930;SDS011;70388;42.698;23.324;2024-02-28T11:08:21;23.38;;;12.73;;
80930;SDS011;70388;42.698;23.324;2024-02-28T11:10:57;21.80;;;12.30;;
80930;SDS011;70388;42.698;23.324;2024-02-28T11:13:24;22.15;;;12.85;;
80930;SDS011;70388;42.698;23.324;2024-02-28T11:15:52;19.05;;;10.93;;
80930;SDS011;70388;42.698;23.324;2024-02-28T11:18:18;21.33;;;10.52;;
80930;SDS011;70388;42.698;23.324;2024-02-28T11:20:44;21.05;;;10.70;;
80930;SDS011;70388;42.698;23.324;2024-02-28T11:23:13;24.63;;;12.23;;
80930;SDS011;70388;42.698;23.324;2024-02-28T11:25:44;17.48;;;10.07;;
80930;SDS011;70388;42.698;23.324;2024-02-28T11:30:40;14.60;;;9.52;;
80930;SDS011;70388;42.698;23.324;2024-02-28T11:33:06;14.27;;;10.15;;
80930;SDS011;70388;42.698;23.324;2024-02-28T11:35:34;16.95;;;9.18;;
80930;SDS011;70388;42.698;23.324;2024-02-28T11:38:00;18.73;;;11.25;;
80930;SDS011;70388;42.698;23.324;2024-02-28T11:40:26;17.83;;;10.10;;
80930;SDS011;70388;42.698;23.324;2024-02-28T11:42:52;18.88;;;10.23;;
80930;SDS011;70388;42.698;23.324;2024-02-28T11:45:19;18.75;;;8.98;;
80930;SDS011;70388;42.698;23.324;2024-02-28T11:47:45;16.67;;;9.02;;
80930;SDS011;70388;42.698;23.324;2024-02-28T11:50:12;16.30;;;8.80;;
80930;SDS011;70388;42.698;23.324;2024-02-28T11:52:39;17.35;;;7.65;;
80930;SDS011;70388;42.698;23.324;2024-02-28T11:55:06;11.95;;;7.05;;
80930;SDS011;70388;42.698;23.324;2024-02-28T11:57:32;15.02;;;7.85;;
80930;SDS011;70388;42.698;23.324;2024-02-28T12:00:06;17.88;;;9.13;;
80930;SDS011;70388;42.698;23.324;2024-02-28T12:02:32;15.75;;;10.32;;
80930;SDS011;70388;42.698;23.324;2024-02-28T12:05:02;18.13;;;10.05;;
80930;SDS011;70388;42.698;23.324;2024-02-28T12:07:29;17.85;;;10.82;;
80930;SDS011;70388;42.698;23.324;2024-02-28T12:09:55;17.48;;;9.85;;
80930;SDS011;70388;42.698;23.324;2024-02-28T12:12:22;13.35;;;8.30;;
80930;SDS011;70388;42.698;23.324;2024-02-28T12:14:48;18.05;;;9.32;;
80930;SDS011;70388;42.698;23.324;2024-02-28T12:17:17;16.25;;;7.45;;
80930;SDS011;70388;42.698;23.324;2024-02-28T12:19:43;15.68;;;8.52;;
80930;SDS011;70388;42.698;23.324;2024-02-28T12:22:09;11.65;;;7.18;;
80930;SDS011;70388;42.698;23.324;2024-02-28T12:24:35;12.18;;;8.10;;
80930;SDS011;70388;42.698;23.324;2024-02-28T12:27:01;11.05;;;6.80;;
80930;SDS011;70388;42.698;23.324;2024-02-28T12:29:27;14.43;;;6.78;;
80930;SDS011;70388;42.698;23.324;2024-02-28T12:31:53;13.48;;;6.75;;
80930;SDS011;70388;42.698;23.324;2024-02-28T12:34:22;12.45;;;6.95;;
80930;SDS011;70388;42.698;23.324;2024-02-28T12:36:47;13.35;;;6.63;;
80930;SDS011;70388;42.698;23.324;2024-02-28T12:39:13;17.45;;;8.85;;
80930;SDS011;70388;42.698;23.324;2024-02-28T12:41:39;13.32;;;8.27;;
80930;SDS011;70388;42.698;23.324;2024-02-28T12:44:05;12.57;;;8.00;;
80930;SDS011;70388;42.698;23.324;2024-02-28T12:46:33;16.05;;;8.45;;
80930;SDS011;70388;42.698;23.324;2024-02-28T12:48:59;16.80;;;9.13;;
80930;SDS011;70388;42.698;23.324;2024-02-28T12:51:40;17.13;;;8.73;;
80930;SDS011;70388;42.698;23.324;2024-02-28T12:54:11;17.08;;;10.60;;
80930;SDS011;70388;42.698;23.324;2024-02-28T12:56:41;16.75;;;9.30;;
80930;SDS011;70388;42.698;23.324;2024-02-28T12:59:10;14.75;;;9.32;;
80930;SDS011;70388;42.698;23.324;2024-02-28T13:01:36;15.30;;;8.68;;
80930;SDS011;70388;42.698;23.324;2024-02-28T13:04:02;15.18;;;9.15;;
80930;SDS011;70388;42.698;23.324;2024-02-28T13:06:28;16.23;;;10.20;;
80930;SDS011;70388;42.698;23.324;2024-02-28T13:08:54;14.02;;;8.10;;
80930;SDS011;70388;42.698;23.324;2024-02-28T13:11:20;14.98;;;8.65;;
80930;SDS011;70388;42.698;23.324;2024-02-28T13:13:48;14.60;;;9.00;;
80930;SDS011;70388;42.698;23.324;2024-02-28T13:16:17;17.17;;;9.57;;
80930;SDS011;70388;42.698;23.324;2024-02-28T13:18:44;18.90;;;10.25;;
80930;SDS011;70388;42.698;23.324;2024-02-28T13:21:11;14.25;;;8.48;;
80930;SDS011;70388;42.698;23.324;2024-02-28T13:23:37;21.13;;;10.48;;
80930;SDS011;70388;42.698;23.324;2024-02-28T13:26:06;15.55;;;8.20;;
80930;SDS011;70388;42.698;23.324;2024-02-28T13:28:32;12.75;;;7.60;;
80930;SDS011;70388;42.698;23.324;2024-02-28T13:31:01;13.93;;;7.80;;
80930;SDS011;70388;42.698;23.324;2024-02-28T13:33:29;12.85;;;8.40;;
80930;SDS011;70388;42.698;23.324;2024-02-28T13:35:55;15.00;;;8.18;;
80930;SDS011;70388;42.698;23.324;2024-02-28T13:38:21;12.10;;;7.93;;
80930;SDS011;70388;42.698;23.324;2024-02-28T13:40:47;14.77;;;8.25;;
80930;SDS011;70388;42.698;23.324;2024-02-28T13:43:13;12.88;;;8.02;;
80930;SDS011;70388;42.698;23.324;2024-02-28T13:45:39;13.88;;;9.10;;
80930;SDS011;70388;42.698;23.324;2024-02-28T13:48:17;16.35;;;11.27;;
80930;SDS011;70388;42.698;23.324;2024-02-28T13:50:46;15.05;;;8.82;;
80930;SDS011;70388;42.698;23.324;2024-02-28T13:53:12;15.38;;;9.32;;
80930;SDS011;70388;42.698;23.324;2024-02-28T13:55:39;15.82;;;9.35;;
80930;SDS011;70388;42.698;23.324;2024-02-28T13:58:05;16.02;;;7.88;;
80930;SDS011;70388;42.698;23.324;2024-02-28T14:00:31;10.68;;;6.47;;
80930;SDS011;70388;42.698;23.324;2024-02-28T14:02:59;13.10;;;7.78;;
80930;SDS011;70388;42.698;23.324;2024-02-28T14:05:25;18.40;;;8.57;;
80930;SDS011;70388;42.698;23.324;2024-02-28T14:07:51;14.32;;;10.07;;
80930;SDS011;70388;42.698;23.324;2024-02-28T14:10:17;12.82;;;7.65;;